createdAt,value
2023-02-11T00:01:44.065Z,61.58
2023-02-11T00:04:12.285Z,61.60
2023-02-11T00:06:40.835Z,60.43
2023-02-11T00:09:08.633Z,60.43
2023-02-11T00:11:37.116Z,60.98
2023-02-11T00:14:08.113Z,61.32
2023-02-11T00:16:36.685Z,61.48
2023-02-11T00:19:06.668Z,61.64
2023-02-11T00:21:35.488Z,62.01
2023-02-11T00:24:03.746Z,63.12
2023-02-11T00:26:34.830Z,64.74
2023-02-11T00:29:04.345Z,64.53
2023-02-11T00:31:33.489Z,63.91
2023-02-11T00:34:01.521Z,63.19
2023-02-11T00:36:30.551Z,64.24
2023-02-11T00:38:59.657Z,65.88
2023-02-11T00:41:29.746Z,65.70
2023-02-11T00:44:00.860Z,66.26
2023-02-11T00:46:29.943Z,65.26
2023-02-11T00:48:58.173Z,65.26
2023-02-11T00:51:27.465Z,66.14
2023-02-11T00:53:55.434Z,66.23
2023-02-11T00:56:24.727Z,66.09
2023-02-11T00:58:53.666Z,64.94
2023-02-11T01:01:21.873Z,65.01
2023-02-11T01:03:50.029Z,65.26
2023-02-11T01:06:19.264Z,65.33
2023-02-11T01:08:47.282Z,65.54
2023-02-11T01:11:21.329Z,65.55
2023-02-11T01:13:50.330Z,65.70
2023-02-11T01:16:19.536Z,65.50
2023-02-11T01:18:47.590Z,65.27
2023-02-11T01:21:18.729Z,64.94
2023-02-11T01:23:46.811Z,65.53
2023-02-11T01:26:14.946Z,65.75
2023-02-11T01:28:42.976Z,66.80
2023-02-11T01:31:11.517Z,66.23
2023-02-11T01:33:39.372Z,66.99
2023-02-11T01:36:08.177Z,67.38
2023-02-11T01:38:36.892Z,66.70
2023-02-11T01:41:09.323Z,66.62
2023-02-11T01:43:43.572Z,66.82
2023-02-11T01:46:36.318Z,66.35
2023-02-11T01:49:12.824Z,67.63
2023-02-11T01:51:44.260Z,68.19
2023-02-11T01:54:35.713Z,67.26
2023-02-11T01:57:25.446Z,68.41
2023-02-11T02:00:12.816Z,68.28
2023-02-11T02:02:51.307Z,67.04
2023-02-11T02:05:25.309Z,66.11
2023-02-11T02:08:16.668Z,66.86
2023-02-11T02:10:47.689Z,67.04
2023-02-11T02:13:17.964Z,66.04
2023-02-11T02:16:03.729Z,66.43
2023-02-11T02:18:51.531Z,66.50
2023-02-11T02:21:59.591Z,67.36
2023-02-11T02:24:52.016Z,67.58
2023-02-11T02:27:42.330Z,68.29
2023-02-11T02:30:20.902Z,67.17
2023-02-11T02:33:22.350Z,67.56
2023-02-11T02:36:04.474Z,67.49
2023-02-11T02:38:54.959Z,66.50
2023-02-11T02:41:32.851Z,66.25
2023-02-11T02:44:01.033Z,66.80
2023-02-11T02:46:33.009Z,65.71
2023-02-11T02:49:02.037Z,67.04
2023-02-11T02:51:51.976Z,66.66
2023-02-11T02:54:36.155Z,66.10
2023-02-11T02:57:07.274Z,67.00
2023-02-11T03:00:13.547Z,66.03
2023-02-11T03:03:02.862Z,66.72
2023-02-11T03:05:58.762Z,66.91
2023-02-11T03:09:05.807Z,66.20
2023-02-11T03:11:36.094Z,65.81
2023-02-11T03:14:08.386Z,65.32
2023-02-11T03:16:39.578Z,65.76
2023-02-11T03:19:21.205Z,65.94
2023-02-11T03:21:52.097Z,64.84
2023-02-11T03:24:33.481Z,66.09
2023-02-11T03:27:09.691Z,65.97
2023-02-11T03:29:45.036Z,65.23
2023-02-11T03:32:17.270Z,64.80
2023-02-11T03:34:48.125Z,64.77
2023-02-11T03:37:45.742Z,64.48
2023-02-11T03:40:19.436Z,64.34
2023-02-11T03:43:01.321Z,63.83
2023-02-11T03:45:30.796Z,63.18
2023-02-11T03:48:04.317Z,63.28
2023-02-11T03:50:35.547Z,63.71
2023-02-11T03:53:05.160Z,64.38
2023-02-11T03:55:38.155Z,64.10
2023-02-11T03:58:07.292Z,63.25
2023-02-11T04:00:39.967Z,63.85
2023-02-11T04:03:09.398Z,64.92
2023-02-11T04:05:38.525Z,64.15
2023-02-11T04:08:06.929Z,63.43
2023-02-11T04:10:35.404Z,63.23
2023-02-11T04:13:03.596Z,62.96
2023-02-11T04:15:31.770Z,62.71
2023-02-11T04:17:59.510Z,62.63
2023-02-11T04:20:28.000Z,62.89
2023-02-11T04:22:55.831Z,62.59
2023-02-11T04:25:24.172Z,63.07
2023-02-11T04:27:53.027Z,63.46
2023-02-11T04:30:21.309Z,63.68
2023-02-11T04:32:49.141Z,62.93
2023-02-11T04:35:17.387Z,64.11
2023-02-11T04:37:45.611Z,63.86
2023-02-11T04:40:13.876Z,63.22
2023-02-11T04:42:41.754Z,65.07
2023-02-11T04:45:11.293Z,66.00
2023-02-11T04:47:39.115Z,64.61
2023-02-11T04:50:07.306Z,65.18
2023-02-11T04:52:35.117Z,64.81
2023-02-11T04:55:03.328Z,64.17
2023-02-11T04:57:31.112Z,63.43
2023-02-11T04:59:59.334Z,64.25
2023-02-11T05:02:27.228Z,62.89
2023-02-11T05:04:55.352Z,64.32
2023-02-11T05:07:23.553Z,64.78
2023-02-11T05:09:51.640Z,63.77
2023-02-11T05:12:19.629Z,63.03
2023-02-11T05:14:47.949Z,62.32
2023-02-11T05:17:15.845Z,62.44
2023-02-11T05:19:44.019Z,62.54
2023-02-11T05:22:12.487Z,62.87
2023-02-11T05:24:40.601Z,62.30
2023-02-11T05:27:08.336Z,62.92
2023-02-11T05:29:36.611Z,63.81
2023-02-11T05:32:04.559Z,64.62
2023-02-11T05:34:32.832Z,64.83
2023-02-11T05:37:01.247Z,63.65
2023-02-11T05:39:29.463Z,62.82
2023-02-11T05:41:57.370Z,64.07
2023-02-11T05:44:25.651Z,64.39
2023-02-11T05:46:53.423Z,63.46
2023-02-11T05:49:21.747Z,62.79
2023-02-11T05:51:49.946Z,62.56
2023-02-11T05:54:18.186Z,63.04
2023-02-11T05:56:45.998Z,63.90
2023-02-11T05:59:15.841Z,63.87
2023-02-11T06:01:43.960Z,62.79
2023-02-11T06:04:12.120Z,63.10
2023-02-11T06:06:39.921Z,63.07
2023-02-11T06:09:08.114Z,62.23
2023-02-11T06:11:35.841Z,63.02
2023-02-11T06:14:04.476Z,62.77
2023-02-11T06:16:32.524Z,62.48
2023-02-11T06:19:01.052Z,61.95
2023-02-11T06:21:43.005Z,61.98
2023-02-11T06:24:12.758Z,61.45
2023-02-11T06:26:40.829Z,61.52
2023-02-11T06:29:09.358Z,62.31
2023-02-11T06:31:39.383Z,61.93
2023-02-11T06:34:09.751Z,61.58
2023-02-11T06:36:40.744Z,61.25
2023-02-11T06:39:08.940Z,61.12
2023-02-11T06:41:36.936Z,60.64
2023-02-11T06:44:05.264Z,60.22
2023-02-11T06:46:33.057Z,60.68
2023-02-11T06:49:01.410Z,60.94
2023-02-11T06:51:29.327Z,60.84
2023-02-11T06:53:57.446Z,59.42
2023-02-11T06:56:27.858Z,58.77
2023-02-11T06:58:56.675Z,59.40
2023-02-11T07:01:26.169Z,58.72
2023-02-11T07:03:55.241Z,58.36
2023-02-11T07:06:28.080Z,58.14
2023-02-11T07:08:56.649Z,59.10
2023-02-11T07:11:27.310Z,57.81
2023-02-11T07:14:00.603Z,58.15
2023-02-11T07:16:28.606Z,58.01
2023-02-11T07:18:56.906Z,57.88
2023-02-11T07:21:25.180Z,57.38
2023-02-11T07:23:53.821Z,56.94
2023-02-11T07:26:24.521Z,57.22
2023-02-11T07:28:53.295Z,57.10
2023-02-11T07:31:25.963Z,58.28
2023-02-11T07:33:57.554Z,57.28
2023-02-11T07:36:26.279Z,58.12
2023-02-11T07:38:54.666Z,58.58
2023-02-11T07:41:23.789Z,60.10
2023-02-11T07:43:52.864Z,60.77
2023-02-11T07:46:26.541Z,61.87
2023-02-11T07:48:55.453Z,62.09
2023-02-11T07:51:26.159Z,61.36
2023-02-11T07:53:55.919Z,61.68
2023-02-11T07:56:24.497Z,60.82
2023-02-11T07:58:52.770Z,61.28
2023-02-11T08:01:25.633Z,60.35
2023-02-11T08:03:58.248Z,60.62
2023-02-11T08:06:29.357Z,60.87
2023-02-11T08:08:59.709Z,59.14
2023-02-11T08:11:29.309Z,57.75
2023-02-11T08:13:57.876Z,56.93
2023-02-11T08:16:29.120Z,56.70
2023-02-11T08:18:59.675Z,55.27
2023-02-11T08:21:28.959Z,54.71
2023-02-11T08:23:57.372Z,55.09
2023-02-11T08:26:29.155Z,52.89
2023-02-11T08:28:58.629Z,51.88
2023-02-11T08:31:29.707Z,48.28
2023-02-11T08:34:02.624Z,46.61
2023-02-11T08:36:36.544Z,48.18
2023-02-11T08:39:18.491Z,48.21
2023-02-11T08:41:49.809Z,49.06
2023-02-11T08:44:19.933Z,49.08
2023-02-11T08:46:48.530Z,48.81
2023-02-11T08:49:16.836Z,49.02
2023-02-11T08:51:45.486Z,48.71
2023-02-11T08:54:14.562Z,47.71
2023-02-11T08:56:43.068Z,46.88
2023-02-11T08:59:15.367Z,47.81
2023-02-11T09:01:44.657Z,48.79
2023-02-11T09:04:13.409Z,48.26
2023-02-11T09:06:41.906Z,48.00
2023-02-11T09:09:13.791Z,47.81
2023-02-11T09:11:43.351Z,46.51
2023-02-11T09:14:20.917Z,46.26
2023-02-11T09:16:49.418Z,45.92
2023-02-11T09:19:18.555Z,45.59
2023-02-11T09:21:47.299Z,46.76
2023-02-11T09:24:15.809Z,46.10
2023-02-11T09:26:45.192Z,46.41
2023-02-11T09:29:13.666Z,45.75
2023-02-11T09:31:41.679Z,46.58
2023-02-11T09:34:11.979Z,46.34
2023-02-11T09:36:42.991Z,46.40
2023-02-11T09:39:17.379Z,45.42
2023-02-11T09:42:11.285Z,46.11
2023-02-11T09:44:44.506Z,45.80
2023-02-11T09:47:36.329Z,46.14
2023-02-11T09:50:12.729Z,46.54
2023-02-11T09:53:01.803Z,44.86
2023-02-11T09:55:48.637Z,45.26
2023-02-11T09:58:26.820Z,45.84
2023-02-11T10:01:09.427Z,45.26
2023-02-11T10:04:00.863Z,45.76
2023-02-11T10:06:52.391Z,45.69
2023-02-11T10:09:38.183Z,45.45
2023-02-11T10:12:38.337Z,44.79
2023-02-11T10:15:37.745Z,43.97
2023-02-11T10:18:36.587Z,44.50
2023-02-11T10:21:28.831Z,45.97
2023-02-11T10:24:03.852Z,45.86
2023-02-11T10:26:33.758Z,45.51
2023-02-11T10:29:12.645Z,46.31
2023-02-11T10:31:45.390Z,46.10
2023-02-11T10:34:15.101Z,45.35
2023-02-11T10:36:45.137Z,45.83
2023-02-11T10:39:20.723Z,45.25
2023-02-11T10:41:56.862Z,45.20
2023-02-11T10:44:36.790Z,44.22
2023-02-11T10:47:21.124Z,44.63
2023-02-11T10:49:49.991Z,45.06
2023-02-11T10:52:27.377Z,45.12
2023-02-11T10:55:04.798Z,45.27
2023-02-11T10:57:37.999Z,44.90
2023-02-11T11:00:18.582Z,45.34
2023-02-11T11:02:52.840Z,45.49
2023-02-11T11:05:29.341Z,45.32
2023-02-11T11:08:00.405Z,45.48
2023-02-11T11:11:04.020Z,44.99
2023-02-11T11:13:35.785Z,45.03
2023-02-11T11:16:18.252Z,46.02
2023-02-11T11:18:48.831Z,45.75
2023-02-11T11:21:35.655Z,44.73
2023-02-11T11:24:04.593Z,44.44
2023-02-11T11:26:47.093Z,44.17
2023-02-11T11:29:19.811Z,43.54
2023-02-11T11:31:51.094Z,42.99
2023-02-11T11:34:38.489Z,43.19
2023-02-11T13:02:00.939Z,43.88
2023-02-11T13:04:43.651Z,43.70
2023-02-11T13:07:20.621Z,43.57
2023-02-11T13:11:44.945Z,43.87
2023-02-11T13:14:22.553Z,43.62
2023-02-11T13:16:51.991Z,43.74
2023-02-11T13:19:39.012Z,43.96
2023-02-11T13:22:32.996Z,43.58
2023-02-11T13:25:36.557Z,43.63
2023-02-11T13:28:37.247Z,43.94
2023-02-11T13:31:08.114Z,44.84
2023-02-11T13:33:43.678Z,46.38
2023-02-11T13:36:18.213Z,46.75
2023-02-11T13:38:55.072Z,46.98
2023-02-11T13:41:31.239Z,46.53
2023-02-11T13:44:04.053Z,47.09
2023-02-11T13:46:56.058Z,46.52
2023-02-11T13:49:26.050Z,47.82
2023-02-11T13:51:56.180Z,46.88
2023-02-11T13:54:39.479Z,47.58
2023-02-11T13:57:28.151Z,46.79
2023-02-11T14:00:02.607Z,47.24
2023-02-11T14:02:55.681Z,47.41
2023-02-11T14:05:49.092Z,47.89
2023-02-11T14:08:41.994Z,48.01
2023-02-11T14:11:29.948Z,47.92
2023-02-11T14:14:15.582Z,48.53
2023-02-11T14:17:09.492Z,49.57
2023-02-11T14:19:46.449Z,49.45
2023-02-11T14:22:24.634Z,49.13
2023-02-11T14:25:00.326Z,49.49
2023-02-11T14:27:35.076Z,49.68
2023-02-11T14:30:25.851Z,49.98
2023-02-11T14:33:10.532Z,50.05
2023-02-11T14:36:05.973Z,50.18
2023-02-11T14:39:02.825Z,50.29
2023-02-11T14:41:35.359Z,50.84
2023-02-11T14:44:21.586Z,50.96
2023-02-11T14:46:53.717Z,50.71
2023-02-11T14:49:26.087Z,50.11
2023-02-11T14:52:06.674Z,50.08
2023-02-11T14:54:36.158Z,49.89
2023-02-11T14:57:16.780Z,51.23
2023-02-11T15:00:05.961Z,50.73
2023-02-11T15:02:38.862Z,50.54
2023-02-11T15:05:26.410Z,50.54
2023-02-11T15:08:07.866Z,51.06
2023-02-11T15:10:42.981Z,50.16
2023-02-11T15:13:19.265Z,50.66
2023-02-11T15:15:48.808Z,51.04
2023-02-11T15:18:23.025Z,50.78
2023-02-11T15:20:52.671Z,50.16
2023-02-11T15:23:27.489Z,50.90
2023-02-11T15:25:58.462Z,51.61
2023-02-11T15:28:30.416Z,50.97
2023-02-11T15:31:14.134Z,51.40
2023-02-11T15:33:42.545Z,51.38
2023-02-11T15:36:13.089Z,51.66
2023-02-11T15:38:41.823Z,51.58
2023-02-11T15:41:38.824Z,51.52
2023-02-11T15:44:27.212Z,51.68
2023-02-11T15:46:55.818Z,51.81
2023-02-11T15:49:25.532Z,52.11
2023-02-11T15:51:55.698Z,51.98
2023-02-11T15:54:29.646Z,52.51
2023-02-11T15:57:05.228Z,52.55
2023-02-11T15:59:53.522Z,52.88
2023-02-11T16:02:45.467Z,52.25
2023-02-11T16:05:32.902Z,52.30
2023-02-11T16:08:12.964Z,51.55
2023-02-11T16:10:55.058Z,51.85
2023-02-11T16:13:24.715Z,51.76
2023-02-11T16:16:04.221Z,52.13
2023-02-11T16:18:40.290Z,52.01
2023-02-11T16:21:18.202Z,51.87
2023-02-11T16:23:56.193Z,51.86
2023-02-11T16:26:39.659Z,51.54
2023-02-11T16:29:10.603Z,52.05
2023-02-11T16:31:42.613Z,51.60
2023-02-11T16:34:28.861Z,51.41
2023-02-11T16:36:57.005Z,51.90
2023-02-11T16:39:25.017Z,51.09
2023-02-11T16:41:53.206Z,51.45
2023-02-11T16:44:21.319Z,51.18
2023-02-11T16:46:49.710Z,51.45
2023-02-11T16:49:25.186Z,52.24
2023-02-11T16:51:57.136Z,51.92
2023-02-11T16:54:25.279Z,52.08
2023-02-11T16:56:53.485Z,51.80
2023-02-11T16:59:21.424Z,51.86
2023-02-11T17:01:52.220Z,52.10
2023-02-11T17:04:26.323Z,51.94
2023-02-11T17:06:57.199Z,52.77
2023-02-11T17:09:30.637Z,52.14
2023-02-11T17:11:59.591Z,52.22
2023-02-11T17:14:27.668Z,52.37
2023-02-11T17:16:55.813Z,52.40
2023-02-11T17:19:24.270Z,52.54
2023-02-11T17:21:53.647Z,52.76
2023-02-11T17:24:22.446Z,52.25
2023-02-11T17:26:50.775Z,52.59
2023-02-11T17:29:22.518Z,52.29
2023-02-11T17:31:52.257Z,52.50
2023-02-11T17:34:22.508Z,52.18
2023-02-11T17:36:51.070Z,52.08
2023-02-11T17:39:21.342Z,52.37
2023-02-11T17:41:49.682Z,52.56
2023-02-11T17:44:17.813Z,52.56
2023-02-11T17:46:46.142Z,52.22
2023-02-11T17:49:13.904Z,52.16
2023-02-11T17:51:42.327Z,52.01
2023-02-11T17:54:17.192Z,51.68
2023-02-11T17:56:46.273Z,51.93
2023-02-11T17:59:14.700Z,52.41
2023-02-11T18:01:45.341Z,52.03
2023-02-11T18:04:15.619Z,52.04
2023-02-11T18:06:44.370Z,52.31
2023-02-11T18:09:12.415Z,52.08
2023-02-11T18:11:41.830Z,52.39
2023-02-11T18:14:11.894Z,52.29
2023-02-11T18:16:43.539Z,52.02
2023-02-11T18:19:12.510Z,52.07
2023-02-11T18:21:40.934Z,52.45
2023-02-11T18:24:09.341Z,52.46
2023-02-11T18:26:38.013Z,52.34
2023-02-11T18:29:07.244Z,52.58
2023-02-11T18:31:36.915Z,51.81
2023-02-11T18:34:07.789Z,51.97
2023-02-11T18:36:36.744Z,52.10
2023-02-11T18:39:06.018Z,52.04
2023-02-11T18:41:35.077Z,51.72
2023-02-11T18:44:04.898Z,52.10
2023-02-11T18:46:33.602Z,51.31
2023-02-11T18:49:01.786Z,51.62
2023-02-11T18:51:32.689Z,51.08
2023-02-11T18:54:01.742Z,51.14
2023-02-11T18:56:30.172Z,51.33
2023-02-11T18:59:01.501Z,52.03
2023-02-11T19:01:31.507Z,51.85
2023-02-11T19:04:03.232Z,51.77
2023-02-11T19:06:35.019Z,50.91
2023-02-11T19:09:10.641Z,51.22
2023-02-11T19:11:54.591Z,51.29
2023-02-11T19:14:31.987Z,51.81
2023-02-11T19:17:04.716Z,51.20
2023-02-11T19:19:36.077Z,51.03
2023-02-11T19:22:09.994Z,51.16
2023-02-11T19:24:39.492Z,50.91
2023-02-11T19:27:08.023Z,50.93
2023-02-11T19:29:36.137Z,51.19
2023-02-11T19:32:06.490Z,51.04
2023-02-11T19:34:41.436Z,50.85
2023-02-11T19:37:13.024Z,51.33
2023-02-11T19:39:42.802Z,51.65
2023-02-11T19:42:12.469Z,51.29
2023-02-11T19:44:40.556Z,51.00
2023-02-11T19:47:10.580Z,51.52
2023-02-11T19:49:39.024Z,51.16
2023-02-11T19:52:07.203Z,51.89
2023-02-11T19:54:35.264Z,52.17
2023-02-11T19:57:03.937Z,51.35
2023-02-11T19:59:32.357Z,51.28
2023-02-11T20:02:01.739Z,52.27
2023-02-11T20:04:32.402Z,52.16
2023-02-11T20:07:00.920Z,51.46
2023-02-11T20:09:31.354Z,51.65
2023-02-11T20:12:00.665Z,51.28
2023-02-11T20:14:28.495Z,51.04
2023-02-11T20:16:56.798Z,50.64
2023-02-11T20:19:26.166Z,50.72
2023-02-11T20:21:57.035Z,51.31
2023-02-11T20:24:27.112Z,51.20
2023-02-11T20:26:57.056Z,51.08
2023-02-11T20:29:32.293Z,51.53
2023-02-11T20:32:03.276Z,51.52
2023-02-11T20:34:31.228Z,51.61
2023-02-11T20:36:59.746Z,51.06
2023-02-11T20:39:27.928Z,50.92
2023-02-11T20:41:57.789Z,50.79
2023-02-11T20:44:25.708Z,51.15
2023-02-11T20:46:56.980Z,51.67
2023-02-11T20:49:25.371Z,51.58
2023-02-11T20:51:54.447Z,51.38
2023-02-11T20:54:24.933Z,51.42
2023-02-11T20:56:54.152Z,52.33
2023-02-11T20:59:22.072Z,51.46
2023-02-11T21:01:54.356Z,51.89
2023-02-11T21:04:25.554Z,51.57
2023-02-11T21:06:57.274Z,52.16
2023-02-11T21:09:28.347Z,52.48
2023-02-11T21:11:57.775Z,51.81
2023-02-11T21:14:27.045Z,50.97
2023-02-11T21:16:56.504Z,51.12
2023-02-11T21:19:24.733Z,51.28
2023-02-11T21:21:53.379Z,50.83
2023-02-11T21:24:21.370Z,51.23
2023-02-11T21:26:49.732Z,51.89
2023-02-11T21:29:17.549Z,51.95
2023-02-11T21:31:45.793Z,52.13
2023-02-11T21:34:14.566Z,52.16
2023-02-11T21:36:43.026Z,52.44
2023-02-11T21:39:11.052Z,52.55
2023-02-11T21:41:39.576Z,52.33
2023-02-11T21:44:07.404Z,52.58
2023-02-11T21:46:35.913Z,52.31
2023-02-11T21:49:03.860Z,52.00
2023-02-11T21:51:32.225Z,52.36
2023-02-11T21:54:01.907Z,52.23
2023-02-11T21:56:32.240Z,51.92
2023-02-11T21:59:00.858Z,51.29
2023-02-11T22:01:32.045Z,51.99
2023-02-11T22:04:00.656Z,52.36
2023-02-11T22:06:31.394Z,51.64
2023-02-11T22:09:03.205Z,51.95
2023-02-11T22:11:31.678Z,51.96
2023-02-11T22:13:59.963Z,51.88
2023-02-11T22:16:28.963Z,51.78
2023-02-11T22:19:02.819Z,51.83
2023-02-11T22:21:31.166Z,51.43
2023-02-11T22:23:59.060Z,51.37
2023-02-11T22:26:28.219Z,51.19
2023-02-11T22:28:56.856Z,52.01
2023-02-11T22:31:30.111Z,51.97
2023-02-11T22:33:59.651Z,52.29
2023-02-11T22:36:33.452Z,52.56
2023-02-11T22:39:03.203Z,52.34
2023-02-11T22:41:32.055Z,52.22
2023-02-11T22:43:59.850Z,52.09
2023-02-11T22:46:28.638Z,52.06
2023-02-11T22:48:57.038Z,52.10
2023-02-11T22:51:27.288Z,52.27
2023-02-11T22:54:00.485Z,51.69
2023-02-11T22:56:30.531Z,51.94
2023-02-11T22:59:04.142Z,52.33
2023-02-11T23:01:34.204Z,52.47
2023-02-11T23:04:04.347Z,52.24
2023-02-11T23:06:33.027Z,52.65
2023-02-11T23:09:02.996Z,52.50
2023-02-11T23:11:32.677Z,52.83
2023-02-11T23:14:02.634Z,53.22
2023-02-11T23:16:33.529Z,52.85
2023-02-11T23:19:04.627Z,53.38
2023-02-11T23:21:34.616Z,53.10
2023-02-11T23:24:06.674Z,53.86
2023-02-11T23:26:35.687Z,54.08
2023-02-11T23:29:03.968Z,53.70
2023-02-11T23:31:34.481Z,54.13
2023-02-11T23:34:02.490Z,53.49
2023-02-11T23:36:31.108Z,54.04
2023-02-11T23:38:58.944Z,54.27
2023-02-11T23:41:27.513Z,54.45
2023-02-11T23:43:57.535Z,54.35
2023-02-11T23:46:27.151Z,54.02
2023-02-11T23:48:56.307Z,54.47
2023-02-11T23:51:24.783Z,54.15
2023-02-11T23:53:55.022Z,54.38
2023-02-11T23:56:26.208Z,54.39
2023-02-11T23:58:55.903Z,53.64
